Fellsburg, Kansas
Current Conditions -  °F | °C
As of 5:55 AM on Thursday 27 Nov 2014 (Local Time) from KPTT Reporting Station
Clear Clear  
Wind Chill: 21°   Ceiling: Unl
Heat Index: 21°   Visibility: 10mi
Dew Point: 18°   Wind: 3mph
Humidity: 86%   Direction: 260°W
Pressure: 30.46"   Gusts: NA
Location:  37.8615°N, 99.2293°W
Report Text: KPTT 271155Z AUTO 26003KT 10SM CLR M06/M08 A3046 RMK AO2
Loading
Personal Weather Stations






























Interactive Weather Map New forecast layout! Learn more

10-Day Weather Forecast

Advertisements
Track Severe Weather on mobile